sensor_id;sensor_type;location;lat;lon;timestamp;pressure;altitude;pressure_sealevel;temperature;humidity
10470;BME280;5282;47.052;15.458;2023-01-04T00:00:04;98924.69;;;4.69;100.00
10470;BME280;5282;47.052;15.458;2023-01-04T00:02:31;98922.59;;;4.74;100.00
10470;BME280;5282;47.052;15.458;2023-01-04T00:04:58;98927.44;;;4.68;100.00
10470;BME280;5282;47.052;15.458;2023-01-04T00:07:28;98929.56;;;4.62;100.00
10470;BME280;5282;47.052;15.458;2023-01-04T00:09:56;98928.50;;;4.51;100.00
10470;BME280;5282;47.052;15.458;2023-01-04T00:12:24;98925.00;;;4.65;100.00
10470;BME280;5282;47.052;15.458;2023-01-04T00:14:51;98914.09;;;4.68;100.00
10470;BME280;5282;47.052;15.458;2023-01-04T00:17:18;98912.97;;;4.72;100.00
10470;BME280;5282;47.052;15.458;2023-01-04T00:19:45;98910.31;;;4.72;100.00
10470;BME280;5282;47.052;15.458;2023-01-04T00:22:12;98912.97;;;4.72;100.00
10470;BME280;5282;47.052;15.458;2023-01-04T00:24:41;98912.38;;;4.67;100.00
10470;BME280;5282;47.052;15.458;2023-01-04T00:27:08;98911.44;;;4.68;100.00
10470;BME280;5282;47.052;15.458;2023-01-04T00:29:35;98911.25;;;4.71;100.00
10470;BME280;5282;47.052;15.458;2023-01-04T00:32:02;98905.81;;;4.72;100.00
10470;BME280;5282;47.052;15.458;2023-01-04T00:34:29;98903.19;;;4.58;100.00
10470;BME280;5282;47.052;15.458;2023-01-04T00:36:56;98903.84;;;4.47;100.00
10470;BME280;5282;47.052;15.458;2023-01-04T00:39:23;98899.91;;;4.38;100.00
10470;BME280;5282;47.052;15.458;2023-01-04T00:41:52;98911.28;;;4.42;100.00
10470;BME280;5282;47.052;15.458;2023-01-04T00:44:30;98917.19;;;4.61;100.00
10470;BME280;5282;47.052;15.458;2023-01-04T00:46:59;98916.13;;;4.64;100.00
10470;BME280;5282;47.052;15.458;2023-01-04T00:49:26;98915.06;;;4.67;100.00
10470;BME280;5282;47.052;15.458;2023-01-04T00:51:54;98913.66;;;4.46;100.00
10470;BME280;5282;47.052;15.458;2023-01-04T00:54:21;98917.16;;;4.47;100.00
10470;BME280;5282;47.052;15.458;2023-01-04T00:56:48;98922.13;;;4.39;100.00
10470;BME280;5282;47.052;15.458;2023-01-04T00:59:18;98920.00;;;4.44;100.00
10470;BME280;5282;47.052;15.458;2023-01-04T01:01:46;98916.59;;;4.56;100.00
10470;BME280;5282;47.052;15.458;2023-01-04T01:04:23;98911.66;;;4.65;100.00
10470;BME280;5282;47.052;15.458;2023-01-04T01:06:56;98914.22;;;4.66;100.00
10470;BME280;5282;47.052;15.458;2023-01-04T01:09:26;98915.06;;;4.67;100.00
10470;BME280;5282;47.052;15.458;2023-01-04T01:11:54;98918.59;;;4.53;100.00
10470;BME280;5282;47.052;15.458;2023-01-04T01:14:24;98924.88;;;4.52;100.00
10470;BME280;5282;47.052;15.458;2023-01-04T01:16:55;98929.19;;;4.40;100.00
10470;BME280;5282;47.052;15.458;2023-01-04T01:19:28;98930.91;;;4.41;100.00
10470;BME280;5282;47.052;15.458;2023-01-04T01:21:56;98930.97;;;4.39;100.00
10470;BME280;5282;47.052;15.458;2023-01-04T01:24:26;98925.16;;;4.47;100.00
10470;BME280;5282;47.052;15.458;2023-01-04T01:26:57;98923.84;;;4.54;100.00
10470;BME280;5282;47.052;15.458;2023-01-04T01:29:27;98927.25;;;4.56;100.00
10470;BME280;5282;47.052;15.458;2023-01-04T01:31:59;98925.28;;;4.45;100.00
10470;BME280;5282;47.052;15.458;2023-01-04T01:34:28;98924.97;;;4.36;100.00
10470;BME280;5282;47.052;15.458;2023-01-04T01:36:56;98915.38;;;4.47;100.00
10470;BME280;5282;47.052;15.458;2023-01-04T01:39:27;98916.69;;;4.55;100.00
10470;BME280;5282;47.052;15.458;2023-01-04T01:41:57;98911.19;;;4.58;100.00
10470;BME280;5282;47.052;15.458;2023-01-04T01:44:56;98913.56;;;4.62;100.00
10470;BME280;5282;47.052;15.458;2023-01-04T01:47:26;98911.38;;;4.55;100.00
10470;BME280;5282;47.052;15.458;2023-01-04T01:49:55;98916.13;;;4.64;100.00
10470;BME280;5282;47.052;15.458;2023-01-04T01:52:31;98910.97;;;4.61;100.00
10470;BME280;5282;47.052;15.458;2023-01-04T01:55:06;98908.50;;;4.43;100.00
10470;BME280;5282;47.052;15.458;2023-01-04T01:57:36;98904.97;;;4.57;100.00
10470;BME280;5282;47.052;15.458;2023-01-04T02:00:09;98901.75;;;4.52;100.00
10470;BME280;5282;47.052;15.458;2023-01-04T02:02:40;98904.88;;;4.44;100.00
10470;BME280;5282;47.052;15.458;2023-01-04T02:05:08;98908.59;;;4.56;100.00
10470;BME280;5282;47.052;15.458;2023-01-04T02:07:37;98895.66;;;4.65;100.00
10470;BME280;5282;47.052;15.458;2023-01-04T02:10:05;98896.38;;;4.67;100.00
10470;BME280;5282;47.052;15.458;2023-01-04T02:12:34;98896.84;;;4.73;100.00
10470;BME280;5282;47.052;15.458;2023-01-04T02:15:01;98889.53;;;4.77;100.00
10470;BME280;5282;47.052;15.458;2023-01-04T02:17:36;98891.63;;;4.72;100.00
10470;BME280;5282;47.052;15.458;2023-01-04T02:20:18;98892.56;;;4.71;100.00
10470;BME280;5282;47.052;15.458;2023-01-04T02:29:48;98891.75;;;4.41;100.00
10470;BME280;5282;47.052;15.458;2023-01-04T02:32:33;98890.41;;;4.48;100.00
10470;BME280;5282;47.052;15.458;2023-01-04T02:35:15;98893.28;;;4.60;100.00
10470;BME280;5282;47.052;15.458;2023-01-04T02:37:49;98893.06;;;4.63;100.00
10470;BME280;5282;47.052;15.458;2023-01-04T02:40:22;98883.03;;;4.67;100.00
10470;BME280;5282;47.052;15.458;2023-01-04T02:42:58;98889.38;;;4.66;100.00
10470;BME280;5282;47.052;15.458;2023-01-04T02:45:52;98897.44;;;4.50;100.00
10470;BME280;5282;47.052;15.458;2023-01-04T02:48:22;98902.50;;;4.40;100.00
10470;BME280;5282;47.052;15.458;2023-01-04T02:51:23;98894.69;;;4.51;100.00
10470;BME280;5282;47.052;15.458;2023-01-04T02:53:52;98897.06;;;4.56;100.00
10470;BME280;5282;47.052;15.458;2023-01-04T02:56:24;98895.16;;;4.58;100.00
10470;BME280;5282;47.052;15.458;2023-01-04T02:59:21;98894.88;;;4.62;100.00
10470;BME280;5282;47.052;15.458;2023-01-04T03:01:56;98895.44;;;4.68;100.00
10470;BME280;5282;47.052;15.458;2023-01-04T03:05:00;98896.13;;;4.71;100.00
10470;BME280;5282;47.052;15.458;2023-01-04T03:07:52;98900.47;;;4.72;100.00
10470;BME280;5282;47.052;15.458;2023-01-04T03:10:27;98892.28;;;4.75;100.00
10470;BME280;5282;47.052;15.458;2023-01-04T03:13:05;98896.97;;;4.72;100.00
10470;BME280;5282;47.052;15.458;2023-01-04T03:15:35;98894.28;;;4.72;100.00
10470;BME280;5282;47.052;15.458;2023-01-04T03:18:09;98896.56;;;4.78;100.00
10470;BME280;5282;47.052;15.458;2023-01-04T03:20:41;98886.09;;;4.75;100.00
10470;BME280;5282;47.052;15.458;2023-01-04T03:23:13;98888.78;;;4.75;100.00
10470;BME280;5282;47.052;15.458;2023-01-04T03:26:02;98892.56;;;4.71;100.00
10470;BME280;5282;47.052;15.458;2023-01-04T03:28:48;98892.56;;;4.71;100.00
10470;BME280;5282;47.052;15.458;2023-01-04T03:31:36;98893.34;;;4.73;100.00
10470;BME280;5282;47.052;15.458;2023-01-04T03:34:24;98893.81;;;4.79;100.00
10470;BME280;5282;47.052;15.458;2023-01-04T03:37:13;98892.00;;;4.80;100.00
10470;BME280;5282;47.052;15.458;2023-01-04T03:39:59;98895.72;;;4.63;100.00
10470;BME280;5282;47.052;15.458;2023-01-04T03:42:54;98888.38;;;4.67;100.00
10470;BME280;5282;47.052;15.458;2023-01-04T03:45:44;98876.38;;;4.74;100.00
10470;BME280;5282;47.052;15.458;2023-01-04T03:48:34;98877.16;;;4.61;100.00
10470;BME280;5282;47.052;15.458;2023-01-04T03:51:08;98879.25;;;4.71;100.00
10470;BME280;5282;47.052;15.458;2023-01-04T03:53:47;98879.72;;;4.77;100.00
10470;BME280;5282;47.052;15.458;2023-01-04T03:56:14;98886.88;;;4.77;100.00
10470;BME280;5282;47.052;15.458;2023-01-04T03:58:44;98877.34;;;4.73;100.00
10470;BME280;5282;47.052;15.458;2023-01-04T04:01:11;98891.25;;;4.63;100.00
10470;BME280;5282;47.052;15.458;2023-01-04T04:03:39;98896.00;;;4.73;100.00
10470;BME280;5282;47.052;15.458;2023-01-04T04:06:23;98892.38;;;4.74;100.00
10470;BME280;5282;47.052;15.458;2023-01-04T04:09:08;98891.34;;;4.76;100.00
10470;BME280;5282;47.052;15.458;2023-01-04T04:11:35;98890.50;;;4.76;100.00
10470;BME280;5282;47.052;15.458;2023-01-04T04:14:02;98883.03;;;4.81;100.00
10470;BME280;5282;47.052;15.458;2023-01-04T04:16:29;98882.94;;;4.83;100.00
10470;BME280;5282;47.052;15.458;2023-01-04T04:18:56;98887.41;;;4.82;100.00
10470;BME280;5282;47.052;15.458;2023-01-04T04:21:23;98886.94;;;4.75;100.00
10470;BME280;5282;47.052;15.458;2023-01-04T04:23:50;98876.09;;;4.78;100.00
10470;BME280;5282;47.052;15.458;2023-01-04T04:26:18;98873.97;;;4.84;100.00
10470;BME280;5282;47.052;15.458;2023-01-04T04:28:46;98878.47;;;4.83;100.00
10470;BME280;5282;47.052;15.458;2023-01-04T04:31:12;98867.03;;;4.81;100.00
10470;BME280;5282;47.052;15.458;2023-01-04T04:33:39;98869.69;;;4.81;100.00
10470;BME280;5282;47.052;15.458;2023-01-04T04:36:07;98873.13;;;4.69;100.00
10470;BME280;5282;47.052;15.458;2023-01-04T04:38:37;98883.91;;;4.53;100.00
10470;BME280;5282;47.052;15.458;2023-01-04T04:41:08;98888.78;;;4.46;100.00
10470;BME280;5282;47.052;15.458;2023-01-04T04:43:54;98887.28;;;4.42;100.00
10470;BME280;5282;47.052;15.458;2023-01-04T04:46:21;98887.84;;;4.47;100.00
10470;BME280;5282;47.052;15.458;2023-01-04T04:48:49;98891.25;;;4.49;100.00
10470;BME280;5282;47.052;15.458;2023-01-04T04:51:17;98885.94;;;4.49;100.00
10470;BME280;5282;47.052;15.458;2023-01-04T04:53:44;98882.13;;;4.53;100.00
10470;BME280;5282;47.052;15.458;2023-01-04T04:56:11;98894.69;;;4.51;100.00
10470;BME280;5282;47.052;15.458;2023-01-04T04:58:38;98893.28;;;4.45;100.00
10470;BME280;5282;47.052;15.458;2023-01-04T05:01:06;98881.34;;;4.37;100.00
10470;BME280;5282;47.052;15.458;2023-01-04T05:03:34;98889.53;;;4.48;100.00
10470;BME280;5282;47.052;15.458;2023-01-04T05:06:01;98887.84;;;4.47;100.00
10470;BME280;5282;47.052;15.458;2023-01-04T05:08:28;98886.22;;;4.59;100.00
10470;BME280;5282;47.052;15.458;2023-01-04T05:10:55;98884.75;;;4.68;100.00
10470;BME280;5282;47.052;15.458;2023-01-04T05:13:22;98877.34;;;4.73;100.00
10470;BME280;5282;47.052;15.458;2023-01-04T05:15:50;98876.19;;;4.77;100.00
10470;BME280;5282;47.052;15.458;2023-01-04T05:18:21;98881.19;;;4.54;100.00
10470;BME280;5282;47.052;15.458;2023-01-04T05:20:48;98877.72;;;4.67;100.00
10470;BME280;5282;47.052;15.458;2023-01-04T05:23:17;98868.56;;;4.56;100.00
10470;BME280;5282;47.052;15.458;2023-01-04T05:25:44;98873.13;;;4.69;100.00
10470;BME280;5282;47.052;15.458;2023-01-04T05:28:11;98870.28;;;4.57;100.00
10470;BME280;5282;47.052;15.458;2023-01-04T05:30:39;98881.34;;;4.66;100.00
10470;BME280;5282;47.052;15.458;2023-01-04T05:33:19;98872.00;;;4.73;100.00
10470;BME280;5282;47.052;15.458;2023-01-04T05:35:48;98861.03;;;4.77;100.00
10470;BME280;5282;47.052;15.458;2023-01-04T05:38:16;98875.44;;;4.75;100.00
10470;BME280;5282;47.052;15.458;2023-01-04T05:40:43;98870.16;;;4.73;100.00
10470;BME280;5282;47.052;15.458;2023-01-04T05:43:10;98870.16;;;4.73;100.00
10470;BME280;5282;47.052;15.458;2023-01-04T05:45:38;98876.69;;;4.69;100.00
10470;BME280;5282;47.052;15.458;2023-01-04T05:48:06;98885.81;;;4.51;100.00
10470;BME280;5282;47.052;15.458;2023-01-04T05:50:33;98890.41;;;4.48;100.00
10470;BME280;5282;47.052;15.458;2023-01-04T05:53:01;98889.53;;;4.48;100.00
10470;BME280;5282;47.052;15.458;2023-01-04T05:55:28;98887.47;;;4.53;100.00
10470;BME280;5282;47.052;15.458;2023-01-04T05:57:55;98883.56;;;4.59;100.00
10470;BME280;5282;47.052;15.458;2023-01-04T06:00:22;98876.69;;;4.69;100.00
10470;BME280;5282;47.052;15.458;2023-01-04T06:02:49;98876.28;;;4.75;100.00
10470;BME280;5282;47.052;15.458;2023-01-04T06:05:17;98874.00;;;4.69;100.00
10470;BME280;5282;47.052;15.458;2023-01-04T06:07:44;98882.97;;;4.68;100.00
10470;BME280;5282;47.052;15.458;2023-01-04T06:10:13;98894.09;;;4.75;100.00
10470;BME280;5282;47.052;15.458;2023-01-04T06:12:40;98901.91;;;4.78;100.00
10470;BME280;5282;47.052;15.458;2023-01-04T06:15:09;98887.41;;;4.82;100.00
10470;BME280;5282;47.052;15.458;2023-01-04T06:17:36;98882.19;;;4.81;100.00
10470;BME280;5282;47.052;15.458;2023-01-04T06:20:05;98882.19;;;4.81;100.00
10470;BME280;5282;47.052;15.458;2023-01-04T06:22:33;98875.13;;;4.79;100.00
10470;BME280;5282;47.052;15.458;2023-01-04T06:25:00;98896.13;;;4.71;100.00
10470;BME280;5282;47.052;15.458;2023-01-04T06:27:29;98893.88;;;4.78;100.00
10470;BME280;5282;47.052;15.458;2023-01-04T06:29:56;98890.09;;;4.82;100.00
10470;BME280;5282;47.052;15.458;2023-01-04T06:32:22;98880.19;;;4.84;100.00
10470;BME280;5282;47.052;15.458;2023-01-04T06:34:50;98881.13;;;4.83;100.00
10470;BME280;5282;47.052;15.458;2023-01-04T06:37:16;98877.63;;;4.68;100.00
10470;BME280;5282;47.052;15.458;2023-01-04T06:39:43;98881.91;;;4.71;100.00
10470;BME280;5282;47.052;15.458;2023-01-04T06:42:13;98881.72;;;4.74;100.00
10470;BME280;5282;47.052;15.458;2023-01-04T06:44:55;98888.56;;;4.78;100.00
10470;BME280;5282;47.052;15.458;2023-01-04T06:47:23;98876.09;;;4.78;100.00
10470;BME280;5282;47.052;15.458;2023-01-04T06:49:50;98883.97;;;4.80;100.00
10470;BME280;5282;47.052;15.458;2023-01-04T06:52:17;98874.06;;;4.82;100.00
10470;BME280;5282;47.052;15.458;2023-01-04T06:54:44;98877.81;;;4.79;100.00
10470;BME280;5282;47.052;15.458;2023-01-04T06:57:13;98883.03;;;4.81;100.00
10470;BME280;5282;47.052;15.458;2023-01-04T06:59:40;98879.09;;;4.87;100.00
10470;BME280;5282;47.052;15.458;2023-01-04T07:02:09;98879.22;;;4.85;100.00
10470;BME280;5282;47.052;15.458;2023-01-04T07:04:40;98880.19;;;4.84;100.00
10470;BME280;5282;47.052;15.458;2023-01-04T07:07:07;98888.56;;;4.78;100.00
10470;BME280;5282;47.052;15.458;2023-01-04T07:09:34;98889.72;;;4.74;100.00
10470;BME280;5282;47.052;15.458;2023-01-04T07:12:01;98888.00;;;4.73;100.00
10470;BME280;5282;47.052;15.458;2023-01-04T07:14:28;98894.28;;;4.72;100.00
10470;BME280;5282;47.052;15.458;2023-01-04T07:16:55;98899.03;;;4.81;100.00
10470;BME280;5282;47.052;15.458;2023-01-04T07:19:23;98897.31;;;4.80;100.00
10470;BME280;5282;47.052;15.458;2023-01-04T07:21:50;98894.28;;;4.72;100.00
10470;BME280;5282;47.052;15.458;2023-01-04T07:24:18;98897.63;;;4.75;100.00
10470;BME280;5282;47.052;15.458;2023-01-04T07:26:48;98890.09;;;4.82;100.00
10470;BME280;5282;47.052;15.458;2023-01-04T07:29:15;98890.84;;;4.84;100.00
10470;BME280;5282;47.052;15.458;2023-01-04T07:31:46;98890.66;;;4.87;100.00
10470;BME280;5282;47.052;15.458;2023-01-04T07:34:13;98887.03;;;4.88;100.00
10470;BME280;5282;47.052;15.458;2023-01-04T07:36:42;98890.44;;;4.90;100.00
10470;BME280;5282;47.052;15.458;2023-01-04T07:39:09;98887.03;;;4.88;100.00
10470;BME280;5282;47.052;15.458;2023-01-04T07:41:37;98888.72;;;4.89;100.00
10470;BME280;5282;47.052;15.458;2023-01-04T07:44:05;98887.78;;;4.90;100.00
10470;BME280;5282;47.052;15.458;2023-01-04T07:46:33;98891.31;;;4.91;100.00
10470;BME280;5282;47.052;15.458;2023-01-04T07:49:01;98895.78;;;4.90;100.00
10470;BME280;5282;47.052;15.458;2023-01-04T07:51:29;98904.13;;;4.71;100.00
10470;BME280;5282;47.052;15.458;2023-01-04T07:53:57;98897.16;;;4.69;100.00
10470;BME280;5282;47.052;15.458;2023-01-04T07:56:24;98899.28;;;4.63;100.00
10470;BME280;5282;47.052;15.458;2023-01-04T07:58:51;98903.44;;;4.82;100.00
10470;BME280;5282;47.052;15.458;2023-01-04T08:01:22;98897.13;;;4.83;100.00
10470;BME280;5282;47.052;15.458;2023-01-04T08:03:49;98896.84;;;4.88;100.00
10470;BME280;5282;47.052;15.458;2023-01-04T08:06:17;98893.22;;;4.89;100.00
10470;BME280;5282;47.052;15.458;2023-01-04T08:08:45;98891.63;;;4.86;100.00
10470;BME280;5282;47.052;15.458;2023-01-04T08:11:15;98886.06;;;4.89;100.00
10470;BME280;5282;47.052;15.458;2023-01-04T08:13:43;98886.28;;;4.86;100.00
10470;BME280;5282;47.052;15.458;2023-01-04T08:16:18;98889.78;;;4.87;100.00
10470;BME280;5282;47.052;15.458;2023-01-04T08:18:47;98881.88;;;4.85;100.00
10470;BME280;5282;47.052;15.458;2023-01-04T08:21:17;98886.41;;;4.70;100.00
10470;BME280;5282;47.052;15.458;2023-01-04T08:23:45;98886.97;;;4.61;100.00
10470;BME280;5282;47.052;15.458;2023-01-04T08:26:15;98889.25;;;4.67;100.00
10470;BME280;5282;47.052;15.458;2023-01-04T08:28:43;98894.88;;;4.62;100.00
10470;BME280;5282;47.052;15.458;2023-01-04T08:31:13;98886.78;;;4.64;100.00
10470;BME280;5282;47.052;15.458;2023-01-04T08:33:41;98882.97;;;4.54;100.00
10470;BME280;5282;47.052;15.458;2023-01-04T08:36:10;98879.81;;;4.61;100.00
10470;BME280;5282;47.052;15.458;2023-01-04T08:38:38;98880.66;;;4.62;100.00
10470;BME280;5282;47.052;15.458;2023-01-04T08:41:05;98882.59;;;4.60;100.00
10470;BME280;5282;47.052;15.458;2023-01-04T08:43:34;98886.41;;;4.70;100.00
10470;BME280;5282;47.052;15.458;2023-01-04T08:46:01;98875.03;;;4.81;100.00
10470;BME280;5282;47.052;15.458;2023-01-04T08:48:28;98872.16;;;4.84;100.00
10470;BME280;5282;47.052;15.458;2023-01-04T08:50:57;98860.72;;;4.82;100.00
10470;BME280;5282;47.052;15.458;2023-01-04T08:53:24;98857.38;;;4.93;100.00
10470;BME280;5282;47.052;15.458;2023-01-04T08:55:52;98857.84;;;5.00;100.00
10470;BME280;5282;47.052;15.458;2023-01-04T08:58:19;98855.72;;;5.05;100.00
10470;BME280;5282;47.052;15.458;2023-01-04T09:00:48;98859.41;;;5.17;100.00
10470;BME280;5282;47.052;15.458;2023-01-04T09:03:15;98854.34;;;5.12;100.00
10470;BME280;5282;47.052;15.458;2023-01-04T09:05:44;98861.34;;;5.28;100.00
10470;BME280;5282;47.052;15.458;2023-01-04T09:08:11;98857.53;;;5.32;100.00
10470;BME280;5282;47.052;15.458;2023-01-04T09:10:41;98858.44;;;5.45;100.00
10470;BME280;5282;47.052;15.458;2023-01-04T09:13:08;98845.59;;;5.37;100.00
10470;BME280;5282;47.052;15.458;2023-01-04T09:15:34;98857.09;;;5.38;100.00
10470;BME280;5282;47.052;15.458;2023-01-04T09:18:03;98857.53;;;5.32;100.00
10470;BME280;5282;47.052;15.458;2023-01-04T09:20:32;98852.53;;;5.13;100.00
10470;BME280;5282;47.052;15.458;2023-01-04T09:23:01;98858.28;;;5.34;100.00
10470;BME280;5282;47.052;15.458;2023-01-04T09:25:28;98841.41;;;5.06;100.00
10470;BME280;5282;47.052;15.458;2023-01-04T09:27:56;98848.13;;;4.99;100.00
10470;BME280;5282;47.052;15.458;2023-01-04T09:30:23;98845.44;;;4.99;100.00
10470;BME280;5282;47.052;15.458;2023-01-04T09:32:50;98838.25;;;5.14;100.00
10470;BME280;5282;47.052;15.458;2023-01-04T09:35:18;98834.13;;;5.35;100.00
10470;BME280;5282;47.052;15.458;2023-01-04T09:37:45;98826.19;;;5.74;100.00
10470;BME280;5282;47.052;15.458;2023-01-04T09:40:18;98820.25;;;5.96;100.00
10470;BME280;5282;47.052;15.458;2023-01-04T09:42:46;98820.25;;;6.09;100.00
10470;BME280;5282;47.052;15.458;2023-01-04T09:45:17;98817.56;;;6.09;100.00
10470;BME280;5282;47.052;15.458;2023-01-04T09:47:48;98810.38;;;6.48;100.00
10470;BME280;5282;47.052;15.458;2023-01-04T09:50:21;98794.41;;;7.08;100.00
10470;BME280;5282;47.052;15.458;2023-01-04T09:53:01;98777.25;;;7.94;100.00
10470;BME280;5282;47.052;15.458;2023-01-04T09:55:35;98773.47;;;8.53;100.00
10470;BME280;5282;47.052;15.458;2023-01-04T09:58:11;98769.50;;;8.80;100.00
10470;BME280;5282;47.052;15.458;2023-01-04T10:00:44;98767.28;;;9.50;100.00
10470;BME280;5282;47.052;15.458;2023-01-04T10:03:14;98765.13;;;9.44;100.00
10470;BME280;5282;47.052;15.458;2023-01-04T10:05:44;98763.31;;;9.97;100.00
10470;BME280;5282;47.052;15.458;2023-01-04T10:08:13;98757.06;;;10.48;100.00
10470;BME280;5282;47.052;15.458;2023-01-04T10:10:48;98746.66;;;10.85;100.00
10470;BME280;5282;47.052;15.458;2023-01-04T10:13:35;98742.97;;;11.25;100.00
10470;BME280;5282;47.052;15.458;2023-01-04T10:16:13;98750.06;;;10.87;100.00
10470;BME280;5282;47.052;15.458;2023-01-04T10:18:47;98748.63;;;10.83;100.00
10470;BME280;5282;47.052;15.458;2023-01-04T10:21:29;98733.69;;;11.77;100.00
10470;BME280;5282;47.052;15.458;2023-01-04T10:24:17;98735.41;;;11.78;100.00
10470;BME280;5282;47.052;15.458;2023-01-04T10:26:56;98737.56;;;11.45;100.00
10470;BME280;5282;47.052;15.458;2023-01-04T10:29:37;98726.66;;;12.03;100.00
10470;BME280;5282;47.052;15.458;2023-01-04T10:32:13;98726.69;;;11.84;100.00
10470;BME280;5282;47.052;15.458;2023-01-04T10:34:44;98721.81;;;12.45;100.00
10470;BME280;5282;47.052;15.458;2023-01-04T10:37:15;98715.59;;;12.80;100.00
10470;BME280;5282;47.052;15.458;2023-01-04T10:39:43;98704.78;;;12.80;100.00
10470;BME280;5282;47.052;15.458;2023-01-04T10:42:16;98702.25;;;12.97;100.00
10470;BME280;5282;47.052;15.458;2023-01-04T10:44:55;98693.69;;;13.20;100.00
10470;BME280;5282;47.052;15.458;2023-01-04T10:47:29;98688.81;;;12.87;100.00
10470;BME280;5282;47.052;15.458;2023-01-04T10:50:03;98679.06;;;12.94;100.00
10470;BME280;5282;47.052;15.458;2023-01-04T10:52:40;98680.22;;;13.10;100.00
10470;BME280;5282;47.052;15.458;2023-01-04T10:55:13;98663.00;;;12.75;100.00
10470;BME280;5282;47.052;15.458;2023-01-04T10:57:45;98665.47;;;13.22;100.00
10470;BME280;5282;47.052;15.458;2023-01-04T11:00:18;98666.38;;;12.41;100.00
10470;BME280;5282;47.052;15.458;2023-01-04T11:02:51;98655.13;;;13.00;100.00
10470;BME280;5282;47.052;15.458;2023-01-04T11:05:23;98650.22;;;12.77;100.00
10470;BME280;5282;47.052;15.458;2023-01-04T11:07:56;98646.38;;;13.06;100.00
10470;BME280;5282;47.052;15.458;2023-01-04T11:10:27;98638.94;;;13.44;100.00
10470;BME280;5282;47.052;15.458;2023-01-04T11:12:56;98641.41;;;13.64;100.00
10470;BME280;5282;47.052;15.458;2023-01-04T11:15:23;98648.03;;;13.69;100.00
10470;BME280;5282;47.052;15.458;2023-01-04T11:17:50;98656.47;;;12.59;100.00
10470;BME280;5282;47.052;15.458;2023-01-04T11:20:17;98653.84;;;12.22;100.00
10470;BME280;5282;47.052;15.458;2023-01-04T11:22:53;98655.22;;;11.98;100.00
10470;BME280;5282;47.052;15.458;2023-01-04T11:25:22;98645.25;;;12.54;100.00
10470;BME280;5282;47.052;15.458;2023-01-04T11:27:53;98641.25;;;12.58;100.00
10470;BME280;5282;47.052;15.458;2023-01-04T11:30:25;98637.94;;;11.81;100.00
10470;BME280;5282;47.052;15.458;2023-01-04T11:32:58;98634.47;;;12.26;100.00
10470;BME280;5282;47.052;15.458;2023-01-04T11:35:40;98632.72;;;11.79;100.00
10470;BME280;5282;47.052;15.458;2023-01-04T11:38:14;98615.88;;;11.95;100.00
10470;BME280;5282;47.052;15.458;2023-01-04T11:40:41;98609.13;;;12.37;100.00
10470;BME280;5282;47.052;15.458;2023-01-04T11:43:20;98608.06;;;12.30;100.00
10470;BME280;5282;47.052;15.458;2023-01-04T11:46:00;98607.06;;;11.93;100.00
10470;BME280;5282;47.052;15.458;2023-01-04T11:48:32;98611.47;;;12.04;100.00
10470;BME280;5282;47.052;15.458;2023-01-04T11:51:00;98606.59;;;12.36;100.00
10470;BME280;5282;47.052;15.458;2023-01-04T11:53:30;98602.03;;;12.08;100.00
10470;BME280;5282;47.052;15.458;2023-01-04T11:56:19;98601.25;;;12.44;100.00
10470;BME280;5282;47.052;15.458;2023-01-04T11:59:10;98594.69;;;12.64;100.00
10470;BME280;5282;47.052;15.458;2023-01-04T12:01:42;98598.09;;;12.67;100.00
10470;BME280;5282;47.052;15.458;2023-01-04T12:04:12;98590.56;;;12.06;100.00
10470;BME280;5282;47.052;15.458;2023-01-04T12:06:44;98573.91;;;12.11;100.00
10470;BME280;5282;47.052;15.458;2023-01-04T12:09:15;98569.41;;;11.73;100.00
10470;BME280;5282;47.052;15.458;2023-01-04T12:11:45;98566.38;;;12.14;100.00
10470;BME280;5282;47.052;15.458;2023-01-04T12:14:19;98561.94;;;11.85;100.00
10470;BME280;5282;47.052;15.458;2023-01-04T12:16:51;98559.88;;;12.25;100.00
10470;BME280;5282;47.052;15.458;2023-01-04T12:19:23;98560.91;;;11.68;100.00
10470;BME280;5282;47.052;15.458;2023-01-04T12:21:53;98556.31;;;11.79;100.00
10470;BME280;5282;47.052;15.458;2023-01-04T12:24:24;98550.81;;;11.42;100.00
10470;BME280;5282;47.052;15.458;2023-01-04T12:26:52;98543.13;;;11.48;100.00
10470;BME280;5282;47.052;15.458;2023-01-04T12:29:40;98539.22;;;11.32;100.00
10470;BME280;5282;47.052;15.458;2023-01-04T12:32:42;98534.16;;;11.75;100.00
10470;BME280;5282;47.052;15.458;2023-01-04T12:42:17;98525.50;;;11.53;100.00
10470;BME280;5282;47.052;15.458;2023-01-04T12:45:14;98513.84;;;11.81;100.00
10470;BME280;5282;47.052;15.458;2023-01-04T12:47:43;98512.34;;;11.68;100.00
10470;BME280;5282;47.052;15.458;2023-01-04T12:50:28;98516.66;;;11.61;100.00
10470;BME280;5282;47.052;15.458;2023-01-04T12:52:59;98503.16;;;11.33;100.00
10470;BME280;5282;47.052;15.458;2023-01-04T12:55:58;98505.75;;;11.81;100.00
10470;BME280;5282;47.052;15.458;2023-01-04T12:58:40;98506.84;;;11.88;100.00
10470;BME280;5282;47.052;15.458;2023-01-04T13:01:22;98504.16;;;11.88;100.00
10470;BME280;5282;47.052;15.458;2023-01-04T13:03:54;98498.44;;;11.07;100.00
10470;BME280;5282;47.052;15.458;2023-01-04T13:06:23;98490.88;;;11.49;100.00
10470;BME280;5282;47.052;15.458;2023-01-04T13:08:52;98488.97;;;11.59;100.00
10470;BME280;5282;47.052;15.458;2023-01-04T13:11:34;98487.56;;;11.83;100.00
10470;BME280;5282;47.052;15.458;2023-01-04T13:14:09;98485.50;;;11.95;100.00
10470;BME280;5282;47.052;15.458;2023-01-04T13:16:44;98479.28;;;12.12;100.00
10470;BME280;5282;47.052;15.458;2023-01-04T13:19:19;98477.63;;;11.83;100.00
10470;BME280;5282;47.052;15.458;2023-01-04T13:21:50;98480.56;;;12.08;100.00
10470;BME280;5282;47.052;15.458;2023-01-04T13:24:21;98476.88;;;12.09;100.00
10470;BME280;5282;47.052;15.458;2023-01-04T13:26:51;98477.53;;;11.75;100.00
10470;BME280;5282;47.052;15.458;2023-01-04T13:29:26;98478.91;;;12.07;100.00
10470;BME280;5282;47.052;15.458;2023-01-04T13:31:56;98471.16;;;12.30;100.00
10470;BME280;5282;47.052;15.458;2023-01-04T13:34:26;98469.41;;;12.21;100.00